Time;durP1;ratioP1;P1;durP2;ratioP2;P2;SDS_P1;SDS_P2;PMS_P1;PMS_P2;Temp;Humidity;BMP_temperature;BMP_pressure;BME280_temperature;BME280_humidity;BME280_pressure;Samples;Min_cycle;Max_cycle;Signal;HPM_P1;HPM_P2
2023/07/01 00:00:08;;;;;;;;;;;18.50;95.50;18.70;99473.00;;;;346211;28;83450;-89
2023/07/01 00:00:20;;;;;;;;;;;18.50;95.50;18.70;99475.00;;;;344340;28;90198;-89
2023/07/01 00:00:32;;;;;;;;;;;18.50;95.60;18.70;99474.00;;;;344717;28;83443;-89
2023/07/01 00:00:44;;;;;;;;;;;18.50;95.60;18.70;99474.00;;;;344435;28;90155;-89
2023/07/01 00:00:57;;;;;;;;;;;18.50;95.50;18.70;99480.00;;;;344799;28;83443;-89
2023/07/01 00:01:09;;;;;;;;;;;18.50;95.50;18.60;99469.00;;;;344319;28;91582;-89
2023/07/01 00:01:21;;;;;;;;;;;18.50;95.50;18.60;99477.00;;;;343512;28;83392;-89
2023/07/01 00:01:33;;;;;;;;;;;18.50;95.60;18.70;99477.00;;;;344419;28;90426;-89
2023/07/01 00:01:45;;;;;;;;;;;18.50;95.60;18.60;99479.00;;;;347639;28;83438;-89
2023/07/01 00:01:59;;;;;;;;;;;18.50;95.50;18.60;99476.00;;;;343452;28;87706;-89
2023/07/01 00:02:12;;;;;;;;;;;18.50;95.50;18.60;99479.00;;;;345204;28;83429;-89
2023/07/01 00:02:25;;;;;;;;;;;18.50;95.50;18.60;99474.00;;;;345457;28;90143;-89
2023/07/01 00:02:37;;;;;;;;;;;18.50;95.70;18.60;99480.00;;;;347791;28;83473;-89
2023/07/01 00:02:52;;;;;;;;;;;18.50;95.70;18.60;99472.00;;;;345900;28;90812;-90
2023/07/01 00:03:07;;;;;;;;;;;18.50;95.70;18.70;99475.00;;;;346360;28;82456;-89
2023/07/01 00:03:19;;;;;;;;;;;18.50;95.50;18.70;99468.00;;;;346085;28;90645;-89
2023/07/01 00:03:31;;;;;;;;;;;18.50;95.50;18.70;99475.00;;;;347888;28;82464;-88
2023/07/01 00:03:42;;;;;;;;;;;18.50;95.50;18.70;99478.00;;;;345898;28;92984;-89
2023/07/01 00:03:54;;;;;;;;;;;18.50;95.50;18.70;99472.00;;;;347777;28;82585;-89
2023/07/01 00:04:06;;;;;;;;;;;18.50;95.50;18.70;99479.00;;;;348493;27;90336;-90
2023/07/01 00:04:18;;;;;;;;;;;18.50;95.70;18.70;99470.00;;;;343557;28;82529;-89
2023/07/01 00:04:31;;;;;;;;;;;18.50;95.40;18.70;99476.00;;;;345831;28;91414;-89
2023/07/01 00:04:43;;;;;;;;;;;18.50;95.40;18.70;99473.00;;;;344873;28;83393;-89
2023/07/01 00:04:55;;;;;;;;;;;18.50;95.50;18.70;99472.00;;;;344588;28;91107;-90
2023/07/01 00:05:08;;;;;;;;;;;18.50;95.50;18.70;99474.00;;;;347569;28;83351;-88
2023/07/01 00:05:20;;;;;;;;;;;18.50;95.50;18.70;99473.00;;;;347359;28;89124;-90
2023/07/01 00:05:32;;;;;;;;;;;18.50;95.50;18.70;99468.00;;;;346485;28;83341;-90
2023/07/01 00:05:44;;;;;;;;;;;18.50;95.40;18.70;99474.00;;;;347286;28;90456;-89
2023/07/01 00:05:58;;;;;;;;;;;18.50;95.40;18.60;99473.00;;;;344736;28;83511;-89
2023/07/01 00:06:10;;;;;;;;;;;18.50;95.50;18.60;99477.00;;;;345892;28;91172;-89
2023/07/01 00:06:21;;;;;;;;;;;18.50;95.40;18.60;99472.00;;;;346316;28;82487;-90
2023/07/01 00:06:33;;;;;;;;;;;18.50;95.40;18.60;99476.00;;;;347160;27;91332;-89
2023/07/01 00:06:45;;;;;;;;;;;18.50;95.30;18.70;99472.00;;;;346247;28;83388;-89
2023/07/01 00:06:57;;;;;;;;;;;18.50;95.40;18.70;99469.00;;;;344439;28;90654;-90
2023/07/01 00:07:09;;;;;;;;;;;18.50;95.40;18.70;99473.00;;;;346040;28;82494;-89
2023/07/01 00:07:20;;;;;;;;;;;18.50;95.40;18.70;99472.00;;;;345847;28;89893;-89
2023/07/01 00:07:32;;;;;;;;;;;18.50;95.50;18.60;99473.00;;;;346172;28;82480;-89
2023/07/01 00:07:44;;;;;;;;;;;18.50;95.50;18.60;99468.00;;;;344302;28;89104;-90
2023/07/01 00:07:56;;;;;;;;;;;18.50;95.50;18.60;99466.00;;;;345007;28;82351;-89
2023/07/01 00:08:08;;;;;;;;;;;18.50;95.50;18.70;99474.00;;;;344669;28;90312;-89
2023/07/01 00:08:20;;;;;;;;;;;18.50;95.50;18.70;99466.00;;;;343759;28;82502;-88
2023/07/01 00:08:32;;;;;;;;;;;18.50;95.50;18.70;99477.00;;;;344298;28;92036;-90
2023/07/01 00:08:44;;;;;;;;;;;18.50;95.40;18.60;99470.00;;;;345530;28;84822;-89
2023/07/01 00:08:55;;;;;;;;;;;18.50;95.40;18.70;99474.00;;;;345665;28;91837;-90
2023/07/01 00:09:09;;;;;;;;;;;18.50;95.30;18.60;99474.00;;;;346219;28;83393;-89
2023/07/01 00:09:22;;;;;;;;;;;18.50;95.30;18.60;99476.00;;;;344361;28;90671;-89
2023/07/01 00:09:33;;;;;;;;;;;18.50;95.30;18.50;99477.00;;;;344882;28;83414;-89
2023/07/01 00:09:45;;;;;;;;;;;18.50;95.30;18.60;99468.00;;;;345707;28;91948;-89
2023/07/01 00:09:57;;;;;;;;;;;18.50;95.40;18.60;99471.00;;;;346045;28;83368;-89
2023/07/01 00:10:09;;;;;;;;;;;18.50;95.40;18.60;99472.00;;;;345592;28;90414;-89
2023/07/01 00:10:21;;;;;;;;;;;18.50;95.50;18.60;99467.00;;;;347548;28;83416;-89
2023/07/01 00:10:32;;;;;;;;;;;18.50;95.40;18.60;99469.00;;;;345710;28;90581;-89
2023/07/01 00:10:44;;;;;;;;;;;18.50;95.40;18.70;99472.00;;;;347478;28;83479;-89
2023/07/01 00:11:00;;;;;;;;;;;18.50;95.40;18.70;99466.00;;;;347058;28;91848;-89
2023/07/01 00:11:12;;;;;;;;;;;18.50;95.40;18.70;99471.00;;;;348803;27;83405;-88
2023/07/01 00:11:24;;;;;;;;;;;18.50;95.40;18.60;99468.00;;;;345901;28;88282;-89
2023/07/01 00:11:37;;;;;;;;;;;18.50;95.60;18.50;99477.00;;;;346197;28;83503;-89
2023/07/01 00:11:48;;;;;;;;;;;18.50;95.30;18.60;99468.00;;;;346802;28;91194;-90
2023/07/01 00:12:00;;;;;;;;;;;18.50;95.30;18.60;99470.00;;;;347472;28;83498;-90
2023/07/01 00:12:12;;;;;;;;;;;18.50;95.30;18.60;99469.00;;;;345739;28;90386;-90
2023/07/01 00:12:24;;;;;;;;;;;18.50;95.40;18.60;99466.00;;;;344873;28;82438;-90
2023/07/01 00:12:36;;;;;;;;;;;18.50;95.40;18.60;99467.00;;;;345639;28;91491;-90
2023/07/01 00:12:48;;;;;;;;;;;18.50;95.40;18.50;99466.00;;;;349006;27;82356;-90
2023/07/01 00:12:59;;;;;;;;;;;18.50;95.40;18.60;99470.00;;;;347128;28;91505;-89
2023/07/01 00:13:11;;;;;;;;;;;18.50;95.40;18.70;99471.00;;;;347165;28;83543;-90
2023/07/01 00:13:24;;;;;;;;;;;18.50;95.40;18.60;99472.00;;;;344347;28;90680;-88
2023/07/01 00:13:35;;;;;;;;;;;18.50;95.40;18.60;99463.00;;;;347748;28;83414;-90
2023/07/01 00:13:47;;;;;;;;;;;18.50;95.40;18.60;99468.00;;;;345837;28;92135;-89
2023/07/01 00:13:59;;;;;;;;;;;18.50;95.50;18.60;99467.00;;;;347759;28;82471;-89
2023/07/01 00:14:11;;;;;;;;;;;18.50;95.40;18.60;99470.00;;;;344557;28;89855;-90
2023/07/01 00:14:22;;;;;;;;;;;18.50;95.40;18.60;99467.00;;;;347727;28;82542;-89
2023/07/01 00:14:34;;;;;;;;;;;18.50;95.50;18.60;99468.00;;;;345904;28;88001;-89
2023/07/01 00:14:46;;;;;;;;;;;18.50;95.50;18.60;99468.00;;;;345013;28;83434;-90
2023/07/01 00:14:58;;;;;;;;;;;18.50;95.60;18.60;99466.00;;;;345901;28;91476;-89
2023/07/01 00:15:10;;;;;;;;;;;18.50;95.50;18.60;99467.00;;;;349023;27;83341;-89
2023/07/01 00:15:22;;;;;;;;;;;18.50;95.50;18.60;99464.00;;;;347289;27;91636;-89
2023/07/01 00:15:33;;;;;;;;;;;18.50;95.50;18.60;99468.00;;;;346313;28;83826;-89
2023/07/01 00:15:45;;;;;;;;;;;18.50;95.50;18.50;99465.00;;;;347065;28;92688;-89
2023/07/01 00:15:57;;;;;;;;;;;18.50;95.40;18.60;99464.00;;;;349010;27;83440;-90
2023/07/01 00:16:09;;;;;;;;;;;18.50;95.40;18.60;99464.00;;;;348597;27;90965;-90
2023/07/01 00:16:21;;;;;;;;;;;18.40;95.40;18.60;99466.00;;;;346269;28;83383;-90
2023/07/01 00:16:33;;;;;;;;;;;18.40;95.50;18.60;99462.00;;;;347211;28;90537;-89
2023/07/01 00:16:45;;;;;;;;;;;18.50;95.50;18.60;99465.00;;;;347642;28;82433;-90
2023/07/01 00:16:58;;;;;;;;;;;18.40;95.40;18.70;99462.00;;;;347229;28;90066;-90
2023/07/01 00:17:12;;;;;;;;;;;18.40;95.50;18.60;99468.00;;;;346249;28;83420;-89
2023/07/01 00:17:25;;;;;;;;;;;18.40;95.40;18.70;99460.00;;;;347107;28;91594;-89
2023/07/01 00:17:37;;;;;;;;;;;18.50;95.40;18.70;99471.00;;;;347373;28;83518;-90
2023/07/01 00:17:49;;;;;;;;;;;18.50;95.50;18.70;99468.00;;;;347002;28;92610;-89
2023/07/01 00:18:00;;;;;;;;;;;18.50;95.50;18.60;99469.00;;;;347373;27;83363;-90
2023/07/01 00:18:12;;;;;;;;;;;18.50;95.50;18.60;99468.00;;;;348465;27;91564;-90
2023/07/01 00:18:24;;;;;;;;;;;18.40;95.70;18.70;99461.00;;;;346403;28;83464;-90
2023/07/01 00:18:36;;;;;;;;;;;18.50;95.40;18.70;99459.00;;;;346075;28;90724;-90
2023/07/01 00:18:48;;;;;;;;;;;18.50;95.40;18.70;99466.00;;;;347507;28;82455;-89
2023/07/01 00:19:00;;;;;;;;;;;18.50;95.30;18.70;99465.00;;;;347183;28;90183;-90
2023/07/01 00:19:12;;;;;;;;;;;18.50;95.30;18.60;99464.00;;;;347726;28;83442;-90
2023/07/01 00:19:24;;;;;;;;;;;18.50;95.60;18.50;99462.00;;;;345867;28;92052;-89
2023/07/01 00:19:36;;;;;;;;;;;18.50;95.40;18.50;99466.00;;;;345058;28;83344;-89
2023/07/01 00:19:49;;;;;;;;;;;18.50;95.40;18.60;99466.00;;;;346021;28;91409;-89
2023/07/01 00:20:01;;;;;;;;;;;18.50;95.30;18.50;99462.00;;;;347990;28;82549;-89
2023/07/01 00:20:13;;;;;;;;;;;18.50;95.40;18.50;99466.00;;;;347365;28;91333;-89
2023/07/01 00:20:31;;;;;;;;;;;18.40;95.40;18.50;99468.00;;;;347903;28;83436;-90
2023/07/01 00:20:43;;;;;;;;;;;18.40;95.40;18.40;99472.00;;;;345957;28;90472;-89
2023/07/01 00:20:55;;;;;;;;;;;18.40;95.60;18.40;99459.00;;;;345028;28;83487;-89
2023/07/01 00:21:07;;;;;;;;;;;18.40;95.70;18.50;99461.00;;;;345878;28;92131;-90
2023/07/01 00:21:19;;;;;;;;;;;18.40;95.50;18.50;99466.00;;;;346193;28;83478;-89
2023/07/01 00:21:31;;;;;;;;;;;18.40;95.40;18.50;99467.00;;;;344384;28;90625;-90
2023/07/01 00:21:43;;;;;;;;;;;18.40;95.40;18.40;99471.00;;;;347964;28;82446;-89
2023/07/01 00:21:56;;;;;;;;;;;18.40;95.40;18.40;99461.00;;;;345812;28;90661;-90
2023/07/01 00:22:08;;;;;;;;;;;18.40;95.30;18.50;99460.00;;;;345032;28;82573;-89
2023/07/01 00:22:20;;;;;;;;;;;18.40;95.40;18.40;99460.00;;;;346218;28;89169;-89
2023/07/01 00:22:32;;;;;;;;;;;18.30;95.00;18.40;99456.00;;;;343620;28;83406;-89
2023/07/01 00:22:44;;;;;;;;;;;18.40;95.10;18.30;99463.00;;;;344765;28;88129;-89
2023/07/01 00:22:56;;;;;;;;;;;18.30;95.10;18.30;99459.00;;;;346112;28;83113;-89
2023/07/01 00:23:08;;;;;;;;;;;18.30;95.10;18.40;99454.00;;;;347261;28;90577;-89
2023/07/01 00:23:20;;;;;;;;;;;18.30;95.10;18.50;99462.00;;;;346196;28;82621;-89
2023/07/01 00:23:32;;;;;;;;;;;18.30;95.10;18.50;99454.00;;;;347211;28;89154;-89
2023/07/01 00:23:44;;;;;;;;;;;18.30;95.20;18.50;99454.00;;;;347702;28;83272;-88
2023/07/01 00:23:56;;;;;;;;;;;18.30;95.20;18.50;99456.00;;;;347034;27;89261;-89
2023/07/01 00:24:08;;;;;;;;;;;18.30;95.30;18.50;99453.00;;;;347623;28;83420;-89
2023/07/01 00:24:19;;;;;;;;;;;18.30;95.20;18.50;99463.00;;;;347182;28;90493;-89
2023/07/01 00:24:31;;;;;;;;;;;18.40;95.20;18.50;99456.00;;;;344836;28;82502;-89
2023/07/01 00:24:43;;;;;;;;;;;18.30;95.20;18.50;99456.00;;;;344394;28;90262;-89
2023/07/01 00:24:55;;;;;;;;;;;18.30;95.30;18.40;99453.00;;;;346219;28;83366;-88
2023/07/01 00:25:07;;;;;;;;;;;18.30;95.30;18.40;99452.00;;;;347234;28;90971;-89
2023/07/01 00:25:19;;;;;;;;;;;18.30;95.30;18.50;99459.00;;;;346297;28;82480;-90
2023/07/01 00:25:31;;;;;;;;;;;18.30;95.40;18.40;99457.00;;;;345862;28;91191;-90
2023/07/01 00:25:43;;;;;;;;;;;18.30;95.30;18.40;99455.00;;;;347851;28;82582;-91
2023/07/01 00:25:55;;;;;;;;;;;18.30;95.30;18.40;99456.00;;;;343130;28;92559;-89
2023/07/01 00:26:07;;;;;;;;;;;18.30;95.30;18.40;99465.00;;;;343330;28;83938;-89
2023/07/01 00:26:19;;;;;;;;;;;18.30;95.40;18.50;99452.00;;;;345783;28;90314;-89
2023/07/01 00:26:30;;;;;;;;;;;18.30;95.40;18.40;99455.00;;;;346105;28;83498;-90
2023/07/01 00:26:42;;;;;;;;;;;18.30;95.40;18.50;99452.00;;;;344388;28;90233;-89
2023/07/01 00:26:54;;;;;;;;;;;18.30;95.40;18.50;99450.00;;;;346183;28;82408;-88
2023/07/01 00:27:06;;;;;;;;;;;18.30;95.40;18.50;99453.00;;;;342934;28;90444;-89
2023/07/01 00:27:18;;;;;;;;;;;18.30;95.40;18.40;99455.00;;;;349007;27;82498;-89
2023/07/01 00:27:29;;;;;;;;;;;18.30;95.40;18.40;99457.00;;;;345615;28;90464;-89
2023/07/01 00:27:41;;;;;;;;;;;18.30;95.40;18.40;99447.00;;;;346103;28;83422;-89
2023/07/01 00:27:53;;;;;;;;;;;18.30;95.30;18.40;99454.00;;;;344163;28;91255;-89
2023/07/01 00:28:05;;;;;;;;;;;18.30;95.20;18.40;99453.00;;;;346169;28;82552;-89
2023/07/01 00:28:17;;;;;;;;;;;18.30;95.30;18.40;99456.00;;;;347206;28;87779;-89
2023/07/01 00:28:29;;;;;;;;;;;18.30;95.30;18.50;99442.00;;;;346439;28;82490;-89
2023/07/01 00:28:41;;;;;;;;;;;18.30;95.20;18.40;99455.00;;;;346187;28;90382;-89
2023/07/01 00:28:53;;;;;;;;;;;18.30;95.40;18.40;99457.00;;;;347973;28;82295;-89
2023/07/01 00:29:05;;;;;;;;;;;18.30;95.30;18.30;99458.00;;;;345962;28;89021;-89
2023/07/01 00:29:16;;;;;;;;;;;18.30;95.20;18.40;99456.00;;;;347468;27;82501;-89
2023/07/01 00:29:28;;;;;;;;;;;18.20;95.20;18.40;99457.00;;;;344307;28;91595;-88
2023/07/01 00:29:42;;;;;;;;;;;18.30;95.30;18.40;99453.00;;;;344769;28;83460;-90
2023/07/01 00:29:54;;;;;;;;;;;18.30;95.40;18.40;99448.00;;;;347201;28;92262;-89
2023/07/01 00:30:07;;;;;;;;;;;18.30;95.40;18.50;99457.00;;;;346194;28;83429;-89
2023/07/01 00:30:19;;;;;;;;;;;18.30;95.40;18.40;99449.00;;;;345840;28;92026;-89
2023/07/01 00:30:31;;;;;;;;;;;18.20;95.40;18.30;99452.00;;;;346337;28;83461;-89
2023/07/01 00:30:42;;;;;;;;;;;18.30;95.40;18.30;99449.00;;;;347181;28;88263;-89
2023/07/01 00:30:54;;;;;;;;;;;18.30;95.30;18.30;99452.00;;;;347531;28;83460;-89
2023/07/01 00:31:06;;;;;;;;;;;18.30;95.40;18.30;99461.00;;;;347016;28;91345;-89
2023/07/01 00:31:18;;;;;;;;;;;18.20;95.40;18.30;99456.00;;;;344713;28;82523;-90
2023/07/01 00:31:30;;;;;;;;;;;18.20;95.40;18.30;99451.00;;;;344239;28;87665;-89
2023/07/01 00:31:42;;;;;;;;;;;18.20;95.40;18.40;99450.00;;;;344650;28;83445;-90
2023/07/01 00:31:54;;;;;;;;;;;18.20;95.40;18.40;99453.00;;;;344078;28;93260;-90
2023/07/01 00:32:07;;;;;;;;;;;18.20;95.40;18.30;99456.00;;;;345938;28;83415;-90
2023/07/01 00:32:18;;;;;;;;;;;18.20;95.40;18.40;99446.00;;;;344450;28;91017;-89
2023/07/01 00:32:30;;;;;;;;;;;18.20;95.40;18.40;99456.00;;;;346232;28;82600;-89
2023/07/01 00:32:42;;;;;;;;;;;18.20;95.30;18.40;99453.00;;;;348639;27;90566;-89
2023/07/01 00:32:54;;;;;;;;;;;18.20;95.40;18.40;99452.00;;;;346282;28;83421;-90
2023/07/01 00:33:06;;;;;;;;;;;18.20;95.40;18.40;99451.00;;;;344519;28;90001;-89
2023/07/01 00:33:18;;;;;;;;;;;18.20;95.40;18.40;99450.00;;;;347693;28;82262;-90
2023/07/01 00:33:30;;;;;;;;;;;18.30;95.40;18.40;99452.00;;;;345995;28;91219;-89
2023/07/01 00:33:42;;;;;;;;;;;18.20;95.30;18.40;99443.00;;;;346374;28;82491;-89
2023/07/01 00:33:54;;;;;;;;;;;18.20;95.40;18.30;99454.00;;;;345711;28;92952;-88
2023/07/01 00:34:06;;;;;;;;;;;18.20;95.40;18.30;99451.00;;;;347788;28;83290;-89
2023/07/01 00:34:18;;;;;;;;;;;18.20;95.30;18.40;99450.00;;;;345662;28;90288;-89
2023/07/01 00:34:30;;;;;;;;;;;18.20;95.30;18.40;99451.00;;;;344746;28;83408;-90
2023/07/01 00:34:42;;;;;;;;;;;18.20;95.40;18.40;99456.00;;;;345695;28;89779;-89
2023/07/01 00:34:54;;;;;;;;;;;18.20;95.40;18.30;99444.00;;;;346314;28;83360;-89
2023/07/01 00:35:06;;;;;;;;;;;18.20;95.40;18.40;99456.00;;;;347241;28;91725;-89
2023/07/01 00:35:18;;;;;;;;;;;18.20;95.40;18.40;99449.00;;;;343476;28;82535;-90
2023/07/01 00:35:29;;;;;;;;;;;18.20;95.40;18.40;99452.00;;;;347390;28;90415;-89
2023/07/01 00:35:41;;;;;;;;;;;18.20;95.40;18.50;99451.00;;;;346333;28;83405;-90
2023/07/01 00:35:53;;;;;;;;;;;18.30;95.30;18.50;99448.00;;;;345550;28;91565;-89
2023/07/01 00:36:05;;;;;;;;;;;18.30;95.30;18.50;99442.00;;;;348782;27;83457;-90
2023/07/01 00:36:17;;;;;;;;;;;18.30;95.30;18.50;99457.00;;;;345707;28;90300;-89
2023/07/01 00:36:28;;;;;;;;;;;18.30;95.30;18.50;99451.00;;;;344657;28;83334;-89
2023/07/01 00:36:40;;;;;;;;;;;18.30;95.40;18.50;99453.00;;;;345803;28;89335;-89
2023/07/01 00:36:52;;;;;;;;;;;18.30;95.40;18.50;99452.00;;;;344739;28;83452;-89
2023/07/01 00:37:05;;;;;;;;;;;18.30;95.40;18.50;99446.00;;;;345677;28;91463;-89
2023/07/01 00:37:17;;;;;;;;;;;18.30;95.30;18.50;99451.00;;;;347502;28;82329;-89
2023/07/01 00:37:30;;;;;;;;;;;18.30;95.40;18.50;99452.00;;;;345876;28;90443;-88
2023/07/01 00:37:42;;;;;;;;;;;18.30;95.30;18.50;99453.00;;;;348854;27;83562;-89
2023/07/01 00:37:53;;;;;;;;;;;18.30;95.30;18.50;99456.00;;;;344172;28;91406;-90
2023/07/01 00:38:05;;;;;;;;;;;18.30;95.30;18.50;99453.00;;;;347578;28;83347;-89
2023/07/01 00:38:17;;;;;;;;;;;18.30;95.40;18.50;99448.00;;;;345582;28;90390;-89
2023/07/01 00:38:29;;;;;;;;;;;18.30;95.40;18.50;99451.00;;;;347187;28;82591;-89
2023/07/01 00:38:41;;;;;;;;;;;18.30;95.40;18.50;99448.00;;;;347151;28;91246;-90
2023/07/01 00:38:53;;;;;;;;;;;18.30;95.40;18.40;99456.00;;;;346306;28;82479;-90
2023/07/01 00:39:05;;;;;;;;;;;18.30;95.40;18.40;99454.00;;;;347057;28;92096;-89
2023/07/01 00:39:16;;;;;;;;;;;18.30;95.40;18.30;99457.00;;;;347446;28;83494;-89
2023/07/01 00:39:28;;;;;;;;;;;18.30;95.70;18.30;99452.00;;;;345685;28;90239;-89
2023/07/01 00:39:40;;;;;;;;;;;18.30;95.40;18.40;99450.00;;;;348897;27;82494;-89
2023/07/01 00:39:52;;;;;;;;;;;18.30;95.40;18.40;99450.00;;;;346962;28;91171;-88
2023/07/01 00:40:04;;;;;;;;;;;18.30;95.50;18.40;99457.00;;;;347632;28;83139;-89
2023/07/01 00:40:16;;;;;;;;;;;18.30;95.50;18.40;99449.00;;;;348303;27;90555;-89
2023/07/01 00:40:28;;;;;;;;;;;18.30;95.40;18.40;99450.00;;;;344606;28;82577;-89
2023/07/01 00:40:39;;;;;;;;;;;18.20;95.40;18.50;99452.00;;;;347102;28;89324;-89
2023/07/01 00:40:51;;;;;;;;;;;18.30;95.40;18.40;99447.00;;;;347516;28;83350;-90
2023/07/01 00:41:03;;;;;;;;;;;18.20;95.40;18.30;99453.00;;;;348585;27;90236;-90
2023/07/01 00:41:17;;;;;;;;;;;18.20;95.50;18.40;99453.00;;;;344563;28;83551;-89
2023/07/01 00:41:29;;;;;;;;;;;18.20;95.40;18.40;99448.00;;;;347140;28;91270;-90
2023/07/01 00:41:41;;;;;;;;;;;18.20;95.30;18.40;99449.00;;;;344733;28;82526;-89
2023/07/01 00:41:53;;;;;;;;;;;18.20;95.40;18.50;99449.00;;;;344211;28;90603;-90
2023/07/01 00:42:05;;;;;;;;;;;18.20;95.40;18.50;99441.00;;;;344719;28;83470;-90
2023/07/01 00:42:18;;;;;;;;;;;18.20;95.40;18.40;99443.00;;;;347008;28;91425;-90
2023/07/01 00:42:30;;;;;;;;;;;18.20;95.50;18.40;99443.00;;;;349009;27;83322;-89
2023/07/01 00:42:43;;;;;;;;;;;18.20;95.40;18.40;99441.00;;;;345797;28;89056;-90
2023/07/01 00:42:55;;;;;;;;;;;18.20;95.40;18.40;99447.00;;;;347822;28;82492;-89
2023/07/01 00:43:07;;;;;;;;;;;18.20;95.50;18.40;99449.00;;;;347225;28;90556;-90
2023/07/01 00:43:19;;;;;;;;;;;18.20;95.50;18.50;99447.00;;;;346228;28;83444;-90
2023/07/01 00:43:31;;;;;;;;;;;18.20;95.50;18.40;99445.00;;;;347154;28;91390;-89
2023/07/01 00:43:43;;;;;;;;;;;18.20;95.50;18.40;99447.00;;;;347503;28;83434;-90
2023/07/01 00:43:55;;;;;;;;;;;18.20;95.50;18.30;99444.00;;;;347025;28;92638;-90
2023/07/01 00:44:06;;;;;;;;;;;18.20;95.50;18.40;99440.00;;;;347614;28;82518;-89
2023/07/01 00:44:20;;;;;;;;;;;18.20;95.50;18.40;99444.00;;;;347080;28;91343;-90
2023/07/01 00:44:32;;;;;;;;;;;18.20;95.50;18.50;99439.00;;;;346130;28;83464;-89
2023/07/01 00:44:44;;;;;;;;;;;18.20;95.50;18.50;99442.00;;;;345489;28;91482;-89
2023/07/01 00:44:56;;;;;;;;;;;18.20;95.50;18.50;99442.00;;;;346208;28;83355;-90
2023/07/01 00:45:08;;;;;;;;;;;18.20;95.40;18.50;99439.00;;;;344267;28;91542;-89
2023/07/01 00:45:19;;;;;;;;;;;18.20;95.40;18.40;99449.00;;;;344875;28;83436;-89
2023/07/01 00:45:31;;;;;;;;;;;18.20;95.50;18.40;99457.00;;;;345826;28;91553;-89
2023/07/01 00:45:43;;;;;;;;;;;18.20;95.40;18.40;99446.00;;;;344796;28;83335;-90
2023/07/01 00:45:55;;;;;;;;;;;18.30;95.50;18.40;99444.00;;;;345640;28;92413;-88
2023/07/01 00:46:07;;;;;;;;;;;18.20;95.50;18.40;99442.00;;;;346172;28;83354;-89
2023/07/01 00:46:21;;;;;;;;;;;18.20;95.60;18.40;99451.00;;;;347279;28;90533;-89
2023/07/01 00:46:33;;;;;;;;;;;18.20;95.60;18.40;99450.00;;;;346179;28;82613;-89
2023/07/01 00:46:45;;;;;;;;;;;18.20;95.60;18.40;99443.00;;;;347135;28;90539;-89
2023/07/01 00:46:57;;;;;;;;;;;18.20;95.40;18.50;99439.00;;;;346309;28;83296;-89
2023/07/01 00:47:09;;;;;;;;;;;18.30;95.40;18.50;99447.00;;;;344264;28;92180;-90
2023/07/01 00:47:21;;;;;;;;;;;18.20;95.40;18.50;99445.00;;;;346254;28;82605;-90
2023/07/01 00:47:32;;;;;;;;;;;18.30;95.40;18.40;99448.00;;;;347122;28;91094;-89
2023/07/01 00:47:44;;;;;;;;;;;18.30;95.50;18.40;99449.00;;;;346160;28;83387;-90
2023/07/01 00:47:56;;;;;;;;;;;18.30;95.50;18.40;99446.00;;;;345438;28;91515;-89
2023/07/01 00:48:11;;;;;;;;;;;18.30;95.40;18.40;99445.00;;;;345797;28;82568;-89
2023/07/01 00:48:24;;;;;;;;;;;18.30;95.40;18.40;99442.00;;;;347074;28;91466;-89
2023/07/01 00:48:36;;;;;;;;;;;18.20;95.50;18.40;99444.00;;;;347477;28;82559;-90
2023/07/01 00:48:48;;;;;;;;;;;18.20;95.50;18.40;99442.00;;;;345797;28;88870;-89
2023/07/01 00:49:00;;;;;;;;;;;18.20;95.40;18.40;99439.00;;;;346179;28;83350;-90
2023/07/01 00:49:12;;;;;;;;;;;18.20;95.40;18.40;99444.00;;;;347037;28;90391;-89
2023/07/01 00:49:24;;;;;;;;;;;18.20;95.70;18.40;99448.00;;;;347549;28;83577;-89
2023/07/01 00:49:36;;;;;;;;;;;18.20;95.50;18.40;99452.00;;;;345543;28;91564;-90
2023/07/01 00:49:47;;;;;;;;;;;18.20;95.50;18.40;99442.00;;;;347449;28;83532;-89
2023/07/01 00:49:59;;;;;;;;;;;18.20;95.40;18.50;99448.00;;;;348379;27;92206;-90
2023/07/01 00:50:12;;;;;;;;;;;18.30;95.50;18.50;99453.00;;;;347397;28;82471;-89
2023/07/01 00:50:24;;;;;;;;;;;18.30;95.50;18.40;99451.00;;;;345718;28;90327;-89
2023/07/01 00:50:35;;;;;;;;;;;18.30;95.60;18.50;99448.00;;;;346051;28;82552;-89
2023/07/01 00:50:47;;;;;;;;;;;18.30;95.60;18.50;99447.00;;;;346985;28;91630;-89
2023/07/01 00:51:00;;;;;;;;;;;18.30;95.60;18.40;99445.00;;;;347623;28;82381;-90
2023/07/01 00:51:12;;;;;;;;;;;18.30;95.70;18.40;99440.00;;;;347117;27;90321;-89
2023/07/01 00:51:24;;;;;;;;;;;18.30;95.60;18.40;99449.00;;;;346127;28;83470;-89
2023/07/01 00:51:36;;;;;;;;;;;18.30;95.60;18.40;99447.00;;;;345663;28;92135;-90
2023/07/01 00:51:47;;;;;;;;;;;18.30;95.60;18.30;99441.00;;;;347509;28;83339;-90
2023/07/01 00:51:59;;;;;;;;;;;18.30;95.50;18.40;99448.00;;;;347055;28;92288;-89
2023/07/01 00:52:11;;;;;;;;;;;18.20;95.40;18.40;99453.00;;;;344875;28;83385;-89
2023/07/01 00:52:23;;;;;;;;;;;18.30;95.50;18.30;99447.00;;;;345646;28;91779;-89
2023/07/01 00:52:35;;;;;;;;;;;18.20;95.40;18.40;99453.00;;;;347500;28;83435;-89
2023/07/01 00:52:47;;;;;;;;;;;18.20;95.40;18.40;99453.00;;;;348455;27;89111;-89
2023/07/01 00:52:58;;;;;;;;;;;18.20;95.40;18.40;99452.00;;;;346108;28;83405;-89
2023/07/01 00:53:10;;;;;;;;;;;18.20;95.40;18.30;99447.00;;;;345669;28;90499;-89
2023/07/01 00:53:22;;;;;;;;;;;18.20;95.50;18.30;99448.00;;;;346141;28;82511;-89
2023/07/01 00:53:34;;;;;;;;;;;18.20;95.50;18.30;99455.00;;;;348438;27;90475;-89
2023/07/01 00:53:45;;;;;;;;;;;18.20;95.50;18.30;99449.00;;;;344527;28;82578;-90
2023/07/01 00:53:57;;;;;;;;;;;18.20;95.40;18.30;99450.00;;;;347059;28;89695;-89
2023/07/01 00:54:09;;;;;;;;;;;18.20;95.40;18.40;99454.00;;;;346081;28;83429;-90
2023/07/01 00:54:21;;;;;;;;;;;18.20;95.40;18.30;99449.00;;;;342999;28;90337;-90
2023/07/01 00:54:34;;;;;;;;;;;18.20;95.50;18.30;99452.00;;;;346084;28;83513;-89
2023/07/01 00:54:46;;;;;;;;;;;18.20;95.60;18.40;99448.00;;;;344365;28;90119;-89
2023/07/01 00:54:58;;;;;;;;;;;18.20;95.60;18.40;99451.00;;;;346150;28;83486;-89
2023/07/01 00:55:10;;;;;;;;;;;18.20;95.60;18.40;99447.00;;;;345628;28;91480;-89
2023/07/01 00:55:22;;;;;;;;;;;18.20;95.60;18.40;99450.00;;;;344663;28;83420;-90
2023/07/01 00:55:34;;;;;;;;;;;18.10;95.60;18.40;99450.00;;;;345857;28;91216;-89
2023/07/01 00:55:45;;;;;;;;;;;18.10;95.60;18.40;99451.00;;;;344832;28;83302;-90
2023/07/01 00:55:57;;;;;;;;;;;18.20;95.60;18.50;99449.00;;;;345389;28;91391;-90
2023/07/01 00:56:09;;;;;;;;;;;18.20;95.60;18.40;99450.00;;;;346028;28;82552;-90
2023/07/01 00:56:21;;;;;;;;;;;18.20;95.60;18.30;99451.00;;;;344341;28;90155;-89
2023/07/01 00:56:34;;;;;;;;;;;18.20;95.60;18.30;99449.00;;;;344732;28;82419;-88
2023/07/01 00:56:46;;;;;;;;;;;18.20;95.70;18.40;99449.00;;;;345708;28;91490;-90
2023/07/01 00:56:59;;;;;;;;;;;18.20;95.70;18.40;99451.00;;;;346168;28;82521;-89
2023/07/01 00:57:11;;;;;;;;;;;18.20;95.70;18.40;99446.00;;;;346950;27;91274;-90
2023/07/01 00:57:22;;;;;;;;;;;18.20;95.70;18.40;99452.00;;;;348904;27;82529;-90
2023/07/01 00:57:34;;;;;;;;;;;18.20;95.70;18.40;99455.00;;;;345660;28;91224;-89
2023/07/01 00:57:46;;;;;;;;;;;18.10;95.70;18.40;99447.00;;;;344621;28;83457;-89
2023/07/01 00:57:58;;;;;;;;;;;18.10;95.70;18.40;99434.00;;;;344214;28;91225;-90
2023/07/01 00:58:10;;;;;;;;;;;18.10;95.70;18.40;99452.00;;;;347499;28;82474;-90
2023/07/01 00:58:21;;;;;;;;;;;18.10;95.70;18.40;99445.00;;;;345654;28;92178;-89
2023/07/01 00:58:33;;;;;;;;;;;18.10;96.00;18.40;99442.00;;;;344699;28;83520;-90
2023/07/01 00:58:45;;;;;;;;;;;18.10;95.70;18.40;99448.00;;;;347022;28;92053;-89
2023/07/01 00:58:58;;;;;;;;;;;18.20;95.70;18.40;99445.00;;;;346010;28;83445;-90
2023/07/01 00:59:10;;;;;;;;;;;18.10;95.60;18.40;99450.00;;;;347022;28;90394;-90
2023/07/01 00:59:21;;;;;;;;;;;18.10;95.60;18.50;99457.00;;;;347552;28;83440;-90
2023/07/01 00:59:33;;;;;;;;;;;18.20;95.70;18.50;99447.00;;;;345653;28;91136;-90
2023/07/01 00:59:45;;;;;;;;;;;18.20;95.70;18.40;99452.00;;;;346296;28;82395;-90